Time;durP1;ratioP1;P1;durP2;ratioP2;P2;SDS_P1;SDS_P2;PMS_P1;PMS_P2;Temp;Humidity;BMP_temperature;BMP_pressure;BME280_temperature;BME280_humidity;BME280_pressure;Samples;Min_cycle;Max_cycle;Signal;HPM_P1;HPM_P2
2023/10/21 00:00:21;;;;;;;0.40;0.40;;;13.00;99.90;;;;;;5032575;28;20585;-60
2023/10/21 00:02:47;;;;;;;0.40;0.40;;;12.90;99.90;;;;;;5032465;28;20421;-60
2023/10/21 00:05:13;;;;;;;0.30;0.30;;;12.90;99.90;;;;;;5032309;28;20417;-58
2023/10/21 00:07:38;;;;;;;0.30;0.30;;;12.90;99.90;;;;;;5031839;28;20217;-60
2023/10/21 00:10:06;;;;;;;0.40;0.40;;;12.90;99.90;;;;;;5032277;28;20182;-60
2023/10/21 00:12:36;;;;;;;0.63;0.53;;;13.00;99.90;;;;;;5031969;28;20178;-61
2023/10/21 00:15:08;;;;;;;0.30;0.30;;;13.00;99.90;;;;;;5032155;28;20931;-61
2023/10/21 00:17:34;;;;;;;0.57;0.57;;;13.00;99.90;;;;;;5031695;28;20468;-59
2023/10/21 00:20:02;;;;;;;0.40;0.40;;;13.10;99.90;;;;;;5031969;28;20417;-60
2023/10/21 00:22:27;;;;;;;0.30;0.30;;;13.20;99.90;;;;;;5032078;28;20566;-59
2023/10/21 00:24:53;;;;;;;0.40;0.40;;;13.20;99.90;;;;;;5031272;28;20970;-58
2023/10/21 00:27:19;;;;;;;0.30;0.30;;;13.10;99.90;;;;;;5031586;28;20213;-60
2023/10/21 00:29:45;;;;;;;0.57;0.57;;;13.00;99.90;;;;;;5031911;28;20178;-61
2023/10/21 00:32:10;;;;;;;0.40;0.40;;;13.10;99.90;;;;;;5031970;28;20230;-60
2023/10/21 00:34:39;;;;;;;0.30;0.30;;;13.10;99.90;;;;;;5031776;28;20176;-60
2023/10/21 00:37:07;;;;;;;0.50;0.50;;;13.00;99.90;;;;;;5031471;28;20252;-60
2023/10/21 00:39:34;;;;;;;0.60;0.60;;;13.00;99.90;;;;;;5031689;28;20421;-60
2023/10/21 00:42:04;;;;;;;0.40;0.40;;;13.00;99.90;;;;;;5031683;28;20513;-61
2023/10/21 00:44:30;;;;;;;0.40;0.40;;;13.00;99.90;;;;;;5031741;28;20410;-60
2023/10/21 00:46:56;;;;;;;0.50;0.37;;;13.10;99.90;;;;;;5031387;28;20497;-60
2023/10/21 00:49:22;;;;;;;0.40;0.40;;;13.00;99.90;;;;;;5031427;28;20413;-61
2023/10/21 00:51:49;;;;;;;0.30;0.30;;;12.90;99.90;;;;;;5031718;28;20417;-60
2023/10/21 00:54:16;;;;;;;0.30;0.30;;;13.00;99.90;;;;;;5031625;28;20173;-61
2023/10/21 00:56:42;;;;;;;0.37;0.37;;;13.00;99.90;;;;;;5031348;28;20861;-61
2023/10/21 00:59:10;;;;;;;0.40;0.40;;;13.10;99.90;;;;;;5013628;28;20507;-58
2023/10/21 01:01:36;;;;;;;0.87;0.50;;;13.20;99.90;;;;;;5031459;28;20205;-59
2023/10/21 01:04:05;;;;;;;0.40;0.40;;;13.20;99.90;;;;;;5031556;28;20891;-60
2023/10/21 01:06:32;;;;;;;0.40;0.40;;;13.20;99.90;;;;;;5031135;28;20455;-60
2023/10/21 01:08:58;;;;;;;1.40;0.50;;;13.30;99.90;;;;;;5031368;28;20496;-60
2023/10/21 01:11:23;;;;;;;0.30;0.30;;;13.20;99.90;;;;;;5031331;28;20492;-60
2023/10/21 01:13:51;;;;;;;1.33;0.83;;;13.30;99.90;;;;;;5031409;28;20254;-60
2023/10/21 01:16:17;;;;;;;0.40;0.40;;;13.30;99.90;;;;;;5031071;28;20211;-60
2023/10/21 01:18:42;;;;;;;0.40;0.40;;;13.30;99.90;;;;;;5031177;28;20415;-60
2023/10/21 01:21:09;;;;;;;0.77;0.77;;;13.30;99.90;;;;;;5031288;28;20408;-60
2023/10/21 01:23:35;;;;;;;0.30;0.30;;;13.30;99.90;;;;;;5031205;28;20416;-61
2023/10/21 01:26:05;;;;;;;0.60;0.53;;;13.20;99.90;;;;;;5031061;28;20432;-61
2023/10/21 01:28:31;;;;;;;0.40;0.40;;;13.20;99.90;;;;;;5030898;28;20483;-61
2023/10/21 01:30:57;;;;;;;0.40;0.40;;;13.20;99.90;;;;;;5031423;28;20523;-58
2023/10/21 01:33:22;;;;;;;0.40;0.40;;;13.20;99.90;;;;;;5031216;28;20476;-59
2023/10/21 01:35:48;;;;;;;0.37;0.37;;;13.30;99.90;;;;;;5032527;28;20780;-60
2023/10/21 01:38:18;;;;;;;0.50;0.50;;;13.30;99.90;;;;;;5034947;28;20171;-58
2023/10/21 01:40:44;;;;;;;0.30;0.30;;;13.30;99.90;;;;;;5035366;28;20554;-58
2023/10/21 01:43:10;;;;;;;0.30;0.30;;;13.30;99.90;;;;;;5034964;28;20873;-60
2023/10/21 01:45:36;;;;;;;0.30;0.30;;;13.40;99.90;;;;;;5034862;28;20448;-60
2023/10/21 01:48:03;;;;;;;0.30;0.30;;;13.40;99.90;;;;;;5034792;28;20263;-60
2023/10/21 01:50:29;;;;;;;0.40;0.40;;;13.40;99.90;;;;;;5034895;28;20416;-58
2023/10/21 01:52:55;;;;;;;0.30;0.30;;;13.30;99.90;;;;;;5034842;28;20408;-58
2023/10/21 01:55:21;;;;;;;0.30;0.30;;;13.10;99.90;;;;;;5034788;28;20826;-60
2023/10/21 01:57:47;;;;;;;0.43;0.40;;;13.20;99.90;;;;;;5034321;28;20533;-57
2023/10/21 02:00:18;;;;;;;0.37;0.37;;;13.20;99.90;;;;;;5035077;28;20244;-60
2023/10/21 02:02:52;;;;;;;0.30;0.30;;;13.30;99.90;;;;;;5034619;28;20175;-61
2023/10/21 02:05:18;;;;;;;0.40;0.40;;;13.30;99.90;;;;;;5034779;28;20840;-60
2023/10/21 02:07:45;;;;;;;0.40;0.40;;;13.20;99.90;;;;;;5034263;28;20453;-60
2023/10/21 02:10:11;;;;;;;0.33;0.33;;;13.10;99.90;;;;;;5034495;28;20409;-59
2023/10/21 02:12:37;;;;;;;0.30;0.30;;;13.10;99.90;;;;;;5034408;28;20424;-61
2023/10/21 02:15:03;;;;;;;0.40;0.40;;;13.10;99.90;;;;;;5034384;28;20659;-61
2023/10/21 02:17:28;;;;;;;0.30;0.30;;;13.10;99.90;;;;;;5034028;28;20522;-59
2023/10/21 02:19:56;;;;;;;0.30;0.30;;;13.20;99.90;;;;;;5034357;28;20445;-61
2023/10/21 02:22:23;;;;;;;0.40;0.40;;;13.10;99.90;;;;;;5033258;28;20205;-60
2023/10/21 02:24:49;;;;;;;0.43;0.43;;;13.10;99.90;;;;;;5034239;28;20919;-60
2023/10/21 02:27:15;;;;;;;0.57;0.57;;;13.20;99.90;;;;;;5033953;28;20906;-59
2023/10/21 02:29:41;;;;;;;0.30;0.30;;;13.20;99.90;;;;;;5034257;28;20504;-61
2023/10/21 02:32:06;;;;;;;0.30;0.30;;;13.10;99.90;;;;;;5034131;28;20209;-59
2023/10/21 02:34:32;;;;;;;0.30;0.30;;;13.20;99.90;;;;;;5034159;28;20172;-60
2023/10/21 02:36:58;;;;;;;0.30;0.30;;;13.20;99.90;;;;;;5033716;28;20187;-61
2023/10/21 02:39:23;;;;;;;0.30;0.30;;;13.10;99.90;;;;;;5033919;28;20579;-58
2023/10/21 02:41:49;;;;;;;0.40;0.40;;;13.10;99.90;;;;;;5033997;28;20186;-60
2023/10/21 02:44:14;;;;;;;0.40;0.40;;;13.10;99.90;;;;;;5033944;28;20175;-60
2023/10/21 02:46:40;;;;;;;0.30;0.30;;;13.10;99.90;;;;;;5033217;28;20202;-60
2023/10/21 02:49:06;;;;;;;0.37;0.37;;;13.10;99.90;;;;;;5033366;28;20527;-60
2023/10/21 02:51:31;;;;;;;0.40;0.40;;;13.00;99.90;;;;;;5033770;28;20174;-58
2023/10/21 02:53:57;;;;;;;0.30;0.30;;;13.00;99.90;;;;;;5034206;28;20171;-60
2023/10/21 02:56:23;;;;;;;0.30;0.30;;;13.00;99.90;;;;;;5033537;28;20199;-60
2023/10/21 02:58:49;;;;;;;0.40;0.40;;;13.00;99.90;;;;;;5033544;28;20191;-58
2023/10/21 03:01:16;;;;;;;0.40;0.40;;;13.00;99.90;;;;;;5033738;28;20410;-60
2023/10/21 03:03:44;;;;;;;0.50;0.50;;;13.00;99.90;;;;;;5033521;28;20171;-60
2023/10/21 03:06:10;;;;;;;0.40;0.40;;;13.00;99.90;;;;;;5033235;28;20470;-58
2023/10/21 03:08:36;;;;;;;0.40;0.40;;;13.00;99.90;;;;;;5033197;28;20921;-60
2023/10/21 03:11:07;;;;;;;0.30;0.30;;;13.00;99.90;;;;;;5033476;28;20925;-61
2023/10/21 03:13:38;;;;;;;0.40;0.40;;;13.00;99.90;;;;;;5033429;28;20471;-60
2023/10/21 03:16:11;;;;;;;0.30;0.30;;;13.10;99.90;;;;;;5033164;28;20449;-58
2023/10/21 03:18:38;;;;;;;0.30;0.30;;;13.10;99.90;;;;;;5033030;28;20399;-58
2023/10/21 03:21:04;;;;;;;0.30;0.30;;;13.10;99.90;;;;;;5033130;28;20517;-58
2023/10/21 03:23:31;;;;;;;0.40;0.40;;;13.00;99.90;;;;;;5033824;28;20741;-60
2023/10/21 03:25:58;;;;;;;0.30;0.30;;;12.80;99.90;;;;;;5033045;28;20416;-60
2023/10/21 03:28:26;;;;;;;0.30;0.30;;;12.80;99.90;;;;;;5032714;28;20555;-60
2023/10/21 03:30:58;;;;;;;0.40;0.40;;;12.80;99.90;;;;;;5033071;28;20508;-60
2023/10/21 03:33:24;;;;;;;0.50;0.50;;;12.80;99.90;;;;;;5033272;28;20784;-59
2023/10/21 03:35:51;;;;;;;0.50;0.40;;;12.70;99.90;;;;;;5033194;28;20816;-57
2023/10/21 03:38:17;;;;;;;0.40;0.40;;;12.70;99.90;;;;;;5032776;28;20460;-59
2023/10/21 03:40:43;;;;;;;0.40;0.40;;;12.80;99.90;;;;;;5033337;28;20450;-59
2023/10/21 03:43:09;;;;;;;0.40;0.40;;;12.90;99.90;;;;;;5063270;22;20233;-59
2023/10/21 03:45:36;;;;;;;0.40;0.37;;;12.90;99.90;;;;;;5052803;28;20660;-59
2023/10/21 03:48:03;;;;;;;0.40;0.40;;;12.90;99.90;;;;;;5052405;28;20202;-59
2023/10/21 03:50:29;;;;;;;0.30;0.30;;;12.90;99.90;;;;;;5051246;28;20616;-59
2023/10/21 03:52:55;;;;;;;0.40;0.40;;;13.00;99.90;;;;;;5052795;28;20419;-59
2023/10/21 03:55:21;;;;;;;0.30;0.30;;;12.90;99.90;;;;;;5052646;28;20411;-59
2023/10/21 03:57:49;;;;;;;0.40;0.40;;;12.80;99.90;;;;;;5052252;28;20403;-58
2023/10/21 04:00:15;;;;;;;2.87;0.70;;;12.80;99.90;;;;;;5051468;28;20174;-59
2023/10/21 04:02:41;;;;;;;0.40;0.40;;;12.70;99.90;;;;;;5052439;28;20859;-60
2023/10/21 04:05:08;;;;;;;0.40;0.40;;;12.70;99.90;;;;;;5052278;28;20404;-59
2023/10/21 04:07:34;;;;;;;0.57;0.57;;;12.70;99.90;;;;;;5052018;28;20539;-59
2023/10/21 04:10:00;;;;;;;0.40;0.40;;;12.70;99.90;;;;;;5052453;28;20413;-59
2023/10/21 04:12:26;;;;;;;0.40;0.40;;;12.60;99.90;;;;;;5052296;28;20484;-59
2023/10/21 04:14:51;;;;;;;0.30;0.30;;;12.60;99.90;;;;;;5052067;28;20403;-59
2023/10/21 04:17:17;;;;;;;0.33;0.33;;;12.40;99.90;;;;;;5051874;28;20170;-59
2023/10/21 04:19:42;;;;;;;0.40;0.40;;;12.40;99.90;;;;;;5052055;28;20174;-59
2023/10/21 04:22:08;;;;;;;0.30;0.30;;;12.30;99.90;;;;;;5051838;28;20177;-59
2023/10/21 04:24:34;;;;;;;0.30;0.30;;;12.20;99.90;;;;;;5052272;28;20575;-59
2023/10/21 04:26:59;;;;;;;0.40;0.40;;;12.20;99.90;;;;;;5051656;28;20190;-59
2023/10/21 04:29:25;;;;;;;0.37;0.37;;;12.20;99.90;;;;;;5052033;28;20176;-59
2023/10/21 04:31:50;;;;;;;0.50;0.50;;;12.20;99.90;;;;;;5052109;28;20173;-59
2023/10/21 04:34:16;;;;;;;0.30;0.30;;;12.30;99.90;;;;;;5051929;28;20573;-59
2023/10/21 04:36:42;;;;;;;0.40;0.40;;;12.40;99.90;;;;;;5051659;28;20558;-59
2023/10/21 04:39:08;;;;;;;0.50;0.40;;;12.40;99.90;;;;;;5051829;28;20186;-58
2023/10/21 04:41:33;;;;;;;0.30;0.30;;;12.40;99.90;;;;;;5051858;28;20659;-61
2023/10/21 04:43:59;;;;;;;0.30;0.30;;;12.40;99.90;;;;;;5051698;28;20492;-60
2023/10/21 04:46:25;;;;;;;0.40;0.40;;;12.50;99.90;;;;;;5051781;28;20194;-60
2023/10/21 04:48:51;;;;;;;0.30;0.30;;;12.50;99.90;;;;;;5051518;28;20160;-60
2023/10/21 04:51:18;;;;;;;0.40;0.40;;;12.60;99.90;;;;;;5051736;28;20178;-60
2023/10/21 04:53:43;;;;;;;0.60;0.60;;;12.50;99.90;;;;;;5051736;28;20459;-60
2023/10/21 04:56:09;;;;;;;0.30;0.30;;;12.60;99.90;;;;;;5051797;28;20400;-60
2023/10/21 04:58:35;;;;;;;0.30;0.30;;;12.60;99.90;;;;;;5051686;28;20253;-60
2023/10/21 05:01:00;;;;;;;0.30;0.30;;;12.60;99.90;;;;;;5051733;28;20166;-60
2023/10/21 05:03:26;;;;;;;1.23;0.57;;;12.60;99.90;;;;;;5051573;28;20224;-59
2023/10/21 05:05:51;;;;;;;0.50;0.50;;;12.70;99.90;;;;;;5051576;28;20220;-60
2023/10/21 05:08:17;;;;;;;0.40;0.40;;;12.70;99.90;;;;;;5051129;28;20480;-60
2023/10/21 05:10:43;;;;;;;0.40;0.40;;;12.60;99.90;;;;;;5051210;28;20685;-60
2023/10/21 05:13:08;;;;;;;0.40;0.40;;;12.60;99.90;;;;;;5051543;28;20186;-60
2023/10/21 05:15:36;;;;;;;0.40;0.40;;;12.60;99.90;;;;;;5051561;28;20173;-59
2023/10/21 05:18:03;;;;;;;0.50;0.50;;;12.60;99.90;;;;;;5051716;28;20185;-60
2023/10/21 05:20:28;;;;;;;0.30;0.30;;;12.60;99.90;;;;;;5051549;28;20820;-60
2023/10/21 05:22:54;;;;;;;0.30;0.30;;;12.60;99.90;;;;;;5051358;28;20811;-59
2023/10/21 05:25:20;;;;;;;0.30;0.30;;;12.50;99.90;;;;;;5051470;28;20177;-60
2023/10/21 05:27:45;;;;;;;1.00;0.90;;;12.50;99.90;;;;;;5051126;28;20204;-60
2023/10/21 05:30:12;;;;;;;0.40;0.40;;;12.60;99.90;;;;;;5051276;28;20517;-60
2023/10/21 05:32:38;;;;;;;0.47;0.47;;;12.60;99.90;;;;;;5051220;28;20554;-60
2023/10/21 05:35:07;;;;;;;0.77;0.77;;;12.60;99.90;;;;;;5051206;28;20407;-60
2023/10/21 05:37:33;;;;;;;0.50;0.50;;;12.70;99.90;;;;;;5051320;28;20410;-60
2023/10/21 05:39:59;;;;;;;0.53;0.53;;;12.70;99.90;;;;;;5051321;28;20925;-60
2023/10/21 05:42:25;;;;;;;0.40;0.40;;;12.70;99.90;;;;;;5050838;28;20455;-60
2023/10/21 05:44:51;;;;;;;0.60;0.60;;;12.70;99.90;;;;;;5051484;28;20174;-60
2023/10/21 05:47:16;;;;;;;0.40;0.37;;;12.60;99.90;;;;;;5050765;28;20467;-59
2023/10/21 05:49:42;;;;;;;0.40;0.40;;;12.60;99.90;;;;;;5051257;28;20198;-60
2023/10/21 05:52:08;;;;;;;0.30;0.30;;;12.50;99.90;;;;;;5050797;28;20668;-60
2023/10/21 05:54:33;;;;;;;0.47;0.47;;;12.40;99.90;;;;;;5051274;28;20262;-60
2023/10/21 05:56:59;;;;;;;0.30;0.30;;;12.30;99.90;;;;;;5050936;28;20551;-60
2023/10/21 05:59:25;;;;;;;0.40;0.40;;;12.20;99.90;;;;;;5050769;28;20166;-60
2023/10/21 06:01:51;;;;;;;0.30;0.30;;;12.10;99.90;;;;;;5050546;28;20470;-60
2023/10/21 06:04:16;;;;;;;0.30;0.30;;;12.10;99.90;;;;;;5050730;28;20194;-60
2023/10/21 06:06:42;;;;;;;0.40;0.40;;;12.20;99.90;;;;;;5050641;28;20224;-60
2023/10/21 06:09:09;;;;;;;0.93;0.50;;;12.40;99.90;;;;;;5050695;28;20683;-60
2023/10/21 06:11:36;;;;;;;0.40;0.40;;;12.40;99.90;;;;;;5050878;28;20162;-60
2023/10/21 06:14:01;;;;;;;0.40;0.40;;;12.50;99.90;;;;;;5050886;28;20417;-60
2023/10/21 06:16:27;;;;;;;0.30;0.30;;;12.40;99.90;;;;;;5050698;28;20435;-60
2023/10/21 06:18:53;;;;;;;0.70;0.40;;;12.40;99.90;;;;;;5050760;28;20671;-60
2023/10/21 06:21:18;;;;;;;0.50;0.40;;;12.30;99.90;;;;;;5051147;28;20190;-60
2023/10/21 06:23:44;;;;;;;0.40;0.40;;;12.20;99.90;;;;;;5053867;28;20189;-60
2023/10/21 06:26:11;;;;;;;0.37;0.37;;;12.20;99.90;;;;;;5054326;28;20173;-60
2023/10/21 06:28:38;;;;;;;0.47;0.47;;;12.20;99.90;;;;;;5054159;28;20422;-60
2023/10/21 06:31:04;;;;;;;0.40;0.40;;;12.30;99.90;;;;;;5053869;28;20412;-60
2023/10/21 06:33:30;;;;;;;0.60;0.60;;;12.30;99.90;;;;;;5054439;28;20434;-60
2023/10/21 06:35:55;;;;;;;0.50;0.40;;;12.40;99.90;;;;;;5054080;28;20522;-60
2023/10/21 06:38:21;;;;;;;0.40;0.40;;;12.40;99.90;;;;;;5053748;28;20560;-59
2023/10/21 06:40:47;;;;;;;0.37;0.37;;;12.40;99.90;;;;;;5054307;28;20652;-60
2023/10/21 06:43:12;;;;;;;0.30;0.30;;;12.50;99.90;;;;;;5053926;28;20595;-60
2023/10/21 06:45:38;;;;;;;0.40;0.40;;;12.40;99.90;;;;;;5053743;28;20201;-59
2023/10/21 06:48:04;;;;;;;0.37;0.37;;;12.30;99.90;;;;;;5053839;28;20200;-59
2023/10/21 06:50:31;;;;;;;0.70;0.70;;;12.20;99.90;;;;;;5053843;28;20432;-59
2023/10/21 06:52:57;;;;;;;0.30;0.30;;;12.20;99.90;;;;;;5053901;28;20448;-58
2023/10/21 06:55:23;;;;;;;0.50;0.50;;;12.30;99.90;;;;;;5052486;28;20897;-58
2023/10/21 06:57:52;;;;;;;0.30;0.30;;;12.40;99.90;;;;;;5053522;28;20175;-58
2023/10/21 07:00:17;;;;;;;1.27;0.80;;;12.40;99.90;;;;;;5053306;28;20418;-57
2023/10/21 07:02:43;;;;;;;0.30;0.30;;;12.40;99.90;;;;;;5053474;28;20435;-58
2023/10/21 07:05:11;;;;;;;0.83;0.40;;;12.30;99.90;;;;;;5053604;28;20174;-58
2023/10/21 07:07:40;;;;;;;1.07;0.80;;;12.20;99.90;;;;;;5052682;28;20207;-58
2023/10/21 07:10:07;;;;;;;1.80;0.50;;;12.20;99.90;;;;;;5053558;28;20987;-57
2023/10/21 07:12:34;;;;;;;0.30;0.30;;;12.30;99.90;;;;;;5053358;28;20511;-58
2023/10/21 07:15:00;;;;;;;0.40;0.40;;;12.40;99.90;;;;;;5053442;28;20440;-58
2023/10/21 07:17:26;;;;;;;0.30;0.30;;;12.40;99.90;;;;;;5052870;28;20448;-57
2023/10/21 07:19:52;;;;;;;0.30;0.30;;;12.30;99.90;;;;;;5053252;28;20423;-57
2023/10/21 07:22:17;;;;;;;0.40;0.40;;;12.40;99.90;;;;;;5053288;28;20194;-58
2023/10/21 07:24:43;;;;;;;1.00;0.50;;;12.50;99.90;;;;;;5052975;28;20170;-59
2023/10/21 07:27:09;;;;;;;0.30;0.30;;;12.40;99.90;;;;;;5051441;28;20205;-58
2023/10/21 07:29:34;;;;;;;0.50;0.50;;;12.40;99.90;;;;;;5053301;28;20170;-58
2023/10/21 07:32:00;;;;;;;1.23;0.80;;;12.30;99.90;;;;;;5052293;28;20170;-58
2023/10/21 07:34:26;;;;;;;0.40;0.40;;;12.30;99.90;;;;;;5052446;28;20249;-58
2023/10/21 07:36:52;;;;;;;0.60;0.50;;;12.30;99.90;;;;;;5052969;28;20177;-58
2023/10/21 07:39:18;;;;;;;0.80;0.40;;;12.50;99.90;;;;;;5052920;28;20409;-58
2023/10/21 07:41:44;;;;;;;0.40;0.40;;;12.70;99.90;;;;;;5053160;28;20543;-58
2023/10/21 07:44:11;;;;;;;0.50;0.50;;;12.90;99.90;;;;;;5052622;28;20452;-59
2023/10/21 07:46:37;;;;;;;0.30;0.30;;;13.20;99.90;;;;;;5052242;28;20267;-59
2023/10/21 07:49:06;;;;;;;0.30;0.30;;;13.50;99.90;;;;;;5052036;28;20491;-59
2023/10/21 07:51:32;;;;;;;0.40;0.40;;;13.90;99.90;;;;;;5051150;28;20201;-57
2023/10/21 07:53:58;;;;;;;0.30;0.30;;;14.20;99.90;;;;;;5051840;28;20416;-58
2023/10/21 07:56:24;;;;;;;0.87;0.57;;;14.40;99.90;;;;;;5052203;28;20420;-59
2023/10/21 07:58:49;;;;;;;1.33;0.70;;;14.40;99.50;;;;;;5051991;28;20166;-58
2023/10/21 08:01:15;;;;;;;0.40;0.40;;;14.50;99.30;;;;;;5052459;28;20558;-58
2023/10/21 08:03:43;;;;;;;0.50;0.50;;;14.30;98.80;;;;;;5052436;28;20196;-59
2023/10/21 08:06:09;;;;;;;0.60;0.60;;;14.20;98.80;;;;;;5052209;28;20170;-57
2023/10/21 08:08:35;;;;;;;0.30;0.30;;;14.10;99.60;;;;;;5051988;28;20824;-58
2023/10/21 08:11:02;;;;;;;0.50;0.50;;;14.10;99.80;;;;;;5052162;28;20707;-58
2023/10/21 08:13:29;;;;;;;0.40;0.40;;;14.30;99.00;;;;;;5052386;28;20508;-58
2023/10/21 08:15:55;;;;;;;0.50;0.50;;;14.20;98.50;;;;;;5052320;28;20792;-58
2023/10/21 08:18:22;;;;;;;0.50;0.40;;;14.20;98.90;;;;;;5052203;28;20416;-58
2023/10/21 08:20:48;;;;;;;0.53;0.53;;;14.20;98.10;;;;;;5051406;28;20469;-58
2023/10/21 08:23:15;;;;;;;0.50;0.50;;;14.00;98.20;;;;;;5051896;28;20523;-58
2023/10/21 08:25:40;;;;;;;0.40;0.40;;;13.90;99.20;;;;;;5051524;28;21000;-58
2023/10/21 08:28:08;;;;;;;0.40;0.40;;;13.70;99.90;;;;;;5051712;28;20601;-58
2023/10/21 08:30:36;;;;;;;0.40;0.40;;;13.60;99.90;;;;;;5051760;28;20182;-58
2023/10/21 08:33:05;;;;;;;0.30;0.30;;;13.70;99.90;;;;;;5051264;28;20432;-58
2023/10/21 08:35:32;;;;;;;0.50;0.50;;;13.90;99.80;;;;;;5050984;28;20457;-58
2023/10/21 08:37:58;;;;;;;0.40;0.40;;;14.10;99.90;;;;;;5050712;28;20801;-58
2023/10/21 08:40:24;;;;;;;0.40;0.40;;;14.20;99.90;;;;;;5050285;28;20428;-58
2023/10/21 08:42:51;;;;;;;0.77;0.50;;;14.40;99.90;;;;;;5049853;28;20944;-58
2023/10/21 08:45:19;;;;;;;0.40;0.40;;;14.30;99.10;;;;;;5050148;28;20421;-60
2023/10/21 08:47:45;;;;;;;0.37;0.37;;;14.20;98.80;;;;;;5050206;28;20464;-58
2023/10/21 08:50:13;;;;;;;0.40;0.40;;;14.30;99.10;;;;;;5050798;28;20462;-58
2023/10/21 08:52:40;;;;;;;0.70;0.50;;;14.40;98.80;;;;;;5051398;28;20452;-59
2023/10/21 08:55:06;;;;;;;0.30;0.30;;;14.50;98.00;;;;;;5051996;28;20827;-59
2023/10/21 08:57:36;;;;;;;0.40;0.40;;;14.40;97.80;;;;;;5051558;28;20771;-58
2023/10/21 09:00:04;;;;;;;0.30;0.30;;;14.40;97.60;;;;;;5051696;28;20505;-59
2023/10/21 09:02:30;;;;;;;0.30;0.30;;;14.40;97.30;;;;;;5051444;28;20449;-59
2023/10/21 09:04:56;;;;;;;0.50;0.50;;;14.50;97.80;;;;;;5051649;28;20907;-59
2023/10/21 09:07:22;;;;;;;0.30;0.30;;;14.60;98.30;;;;;;5051730;28;20949;-58
2023/10/21 09:09:48;;;;;;;0.40;0.40;;;14.60;97.30;;;;;;5051821;28;20186;-59
2023/10/21 09:12:14;;;;;;;0.30;0.30;;;14.60;96.80;;;;;;5051664;28;20420;-59
2023/10/21 09:14:56;;;;;;;0.40;0.40;;;14.60;97.00;;;;;;5051743;28;20408;-59
2023/10/21 09:17:45;;;;;;;1.50;0.57;;;14.70;97.00;;;;;;5051276;28;20412;-59
2023/10/21 09:20:16;;;;;;;0.40;0.40;;;14.60;96.80;;;;;;5051559;28;20443;-59
2023/10/21 09:22:43;;;;;;;0.57;0.57;;;14.60;97.20;;;;;;5051455;28;20789;-58
2023/10/21 09:25:09;;;;;;;0.80;0.50;;;14.60;96.90;;;;;;5051113;28;20819;-58
2023/10/21 09:27:35;;;;;;;0.40;0.40;;;14.50;96.90;;;;;;5050491;28;20543;-59
2023/10/21 09:30:00;;;;;;;0.30;0.30;;;14.50;97.50;;;;;;5051318;28;20190;-58
2023/10/21 09:32:29;;;;;;;0.30;0.30;;;14.50;97.20;;;;;;5050512;28;20555;-59
2023/10/21 09:35:21;;;;;;;0.70;0.50;;;14.60;97.40;;;;;;5051284;28;20177;-59
2023/10/21 09:37:48;;;;;;;0.40;0.40;;;14.60;96.50;;;;;;5051128;28;20827;-59
2023/10/21 09:40:14;;;;;;;0.50;0.50;;;14.40;96.50;;;;;;5050996;28;20451;-58
2023/10/21 09:42:41;;;;;;;2.00;0.50;;;14.10;96.90;;;;;;5104900;22;20487;-55
2023/10/21 09:45:08;;;;;;;0.37;0.37;;;14.00;97.60;;;;;;5029431;28;20425;-58
2023/10/21 09:47:38;;;;;;;0.60;0.60;;;14.00;98.00;;;;;;5031018;28;20587;-58
2023/10/21 09:50:07;;;;;;;0.73;0.73;;;14.30;97.30;;;;;;5030990;28;21161;-58
2023/10/21 09:52:44;;;;;;;0.50;0.50;;;14.60;96.80;;;;;;5031062;28;20416;-58
2023/10/21 09:55:11;;;;;;;0.40;0.40;;;15.10;96.60;;;;;;5030989;28;20508;-58
2023/10/21 09:57:37;;;;;;;0.40;0.40;;;15.30;95.70;;;;;;5033278;28;20929;-58
2023/10/21 10:00:08;;;;;;;0.73;0.50;;;15.40;96.50;;;;;;5034343;28;20422;-58
2023/10/21 10:02:36;;;;;;;0.83;0.60;;;15.20;95.70;;;;;;5034619;28;20761;-58
2023/10/21 10:05:08;;;;;;;0.40;0.40;;;15.20;95.60;;;;;;5034374;28;20418;-58
2023/10/21 10:07:39;;;;;;;0.50;0.50;;;15.20;96.00;;;;;;5032310;28;20547;-58
2023/10/21 10:10:07;;;;;;;0.40;0.40;;;15.40;95.80;;;;;;5033413;28;20926;-58
2023/10/21 10:12:38;;;;;;;0.40;0.40;;;15.70;96.00;;;;;;5034686;28;20412;-58
2023/10/21 10:15:40;;;;;;;1.57;0.40;;;15.90;94.80;;;;;;5035228;28;20891;-58
2023/10/21 10:18:19;;;;;;;0.40;0.40;;;16.10;94.30;;;;;;5034164;28;20818;-57
2023/10/21 10:20:52;;;;;;;0.30;0.30;;;16.10;93.40;;;;;;5034563;28;20413;-58
2023/10/21 10:23:19;;;;;;;0.40;0.40;;;15.90;94.80;;;;;;5034291;28;20436;-58
2023/10/21 10:25:52;;;;;;;0.50;0.40;;;15.90;95.30;;;;;;5034398;28;20416;-58
2023/10/21 10:28:20;;;;;;;0.50;0.50;;;15.90;94.90;;;;;;5033915;28;20445;-58
2023/10/21 10:30:51;;;;;;;0.50;0.50;;;15.70;95.10;;;;;;5034192;28;20413;-58
2023/10/21 10:33:22;;;;;;;0.30;0.30;;;15.60;95.40;;;;;;5034115;28;20429;-60
2023/10/21 10:35:51;;;;;;;0.50;0.50;;;15.70;94.40;;;;;;5034230;28;20405;-58
2023/10/21 10:38:20;;;;;;;0.40;0.40;;;16.00;94.80;;;;;;5033825;28;20408;-57
2023/10/21 10:40:46;;;;;;;0.60;0.60;;;16.40;94.40;;;;;;5033998;28;20420;-58
2023/10/21 10:43:16;;;;;;;0.40;0.40;;;16.70;94.00;;;;;;5033682;28;20437;-57
2023/10/21 10:45:41;;;;;;;0.33;0.33;;;17.20;93.50;;;;;;5033859;28;20476;-58
2023/10/21 10:48:07;;;;;;;0.37;0.37;;;17.50;92.80;;;;;;5033518;28;20539;-58
2023/10/21 10:50:37;;;;;;;0.63;0.63;;;17.50;92.40;;;;;;5033742;28;20245;-58
2023/10/21 10:53:16;;;;;;;1.07;0.50;;;17.30;91.30;;;;;;5033813;28;20425;-58
2023/10/21 10:55:54;;;;;;;0.43;0.40;;;17.30;92.30;;;;;;5033374;28;20785;-58
2023/10/21 10:58:20;;;;;;;1.87;0.67;;;17.00;91.90;;;;;;5033417;28;20786;-58
2023/10/21 11:00:47;;;;;;;3.80;0.67;;;16.90;93.60;;;;;;5033784;28;20781;-58
2023/10/21 11:03:22;;;;;;;0.40;0.40;;;16.70;91.80;;;;;;5033582;28;20433;-58
2023/10/21 11:05:48;;;;;;;0.40;0.40;;;16.60;91.70;;;;;;5033527;28;20416;-58
2023/10/21 11:08:15;;;;;;;0.40;0.40;;;16.40;92.20;;;;;;5014767;28;20970;-58
2023/10/21 11:10:41;;;;;;;0.40;0.40;;;16.40;92.70;;;;;;5034066;28;20420;-58
2023/10/21 11:13:07;;;;;;;0.97;0.53;;;16.10;92.50;;;;;;5033295;28;20886;-58
2023/10/21 11:15:44;;;;;;;0.30;0.30;;;15.70;93.10;;;;;;5033432;28;20500;-57
2023/10/21 11:18:11;;;;;;;0.33;0.33;;;15.50;93.50;;;;;;5033005;28;20409;-58
2023/10/21 11:20:50;;;;;;;0.40;0.40;;;15.40;93.10;;;;;;5033224;28;20463;-58
2023/10/21 11:23:18;;;;;;;0.40;0.40;;;15.40;93.80;;;;;;5033296;28;20437;-58
2023/10/21 11:25:47;;;;;;;0.70;0.50;;;15.40;93.90;;;;;;5033283;28;20771;-58
2023/10/21 11:28:14;;;;;;;0.53;0.53;;;15.40;93.80;;;;;;5032825;28;20473;-58
2023/10/21 11:30:44;;;;;;;0.30;0.30;;;15.60;93.80;;;;;;5033061;28;20501;-58
2023/10/21 11:33:10;;;;;;;1.10;0.60;;;15.70;94.60;;;;;;5032958;28;20468;-58
2023/10/21 11:35:44;;;;;;;0.50;0.50;;;15.60;94.20;;;;;;5033770;28;20397;-58
2023/10/21 11:38:16;;;;;;;0.30;0.30;;;15.50;94.00;;;;;;5032923;28;20410;-58
2023/10/21 11:40:44;;;;;;;0.40;0.40;;;15.60;93.90;;;;;;5032993;28;20489;-58
2023/10/21 11:43:12;;;;;;;0.90;0.57;;;15.80;94.00;;;;;;5032671;28;20492;-57
2023/10/21 11:45:41;;;;;;;0.40;0.40;;;16.10;94.60;;;;;;5032569;28;20410;-57
2023/10/21 11:48:10;;;;;;;0.50;0.50;;;16.40;93.60;;;;;;5032234;28;20548;-58
2023/10/21 11:50:43;;;;;;;0.60;0.60;;;16.50;92.90;;;;;;5032532;28;20408;-58
2023/10/21 11:53:10;;;;;;;0.50;0.50;;;16.60;92.90;;;;;;5032509;28;20421;-58
2023/10/21 12:28:32;;;;;;;0.53;0.53;;;16.50;92.80;;;;;;5031624;28;20445;-58
2023/10/21 12:36:20;;;;;;;2.43;0.60;;;17.30;91.90;;;;;;5031593;28;20396;-58
2023/10/21 12:39:20;;;;;;;0.40;0.40;;;17.30;91.60;;;;;;5031801;28;20173;-58
2023/10/21 12:41:53;;;;;;;1.80;0.43;;;17.20;91.40;;;;;;5031848;28;20418;-58
2023/10/21 12:44:31;;;;;;;0.70;0.70;;;17.10;91.90;;;;;;5031429;28;20446;-58
2023/10/21 12:46:58;;;;;;;0.40;0.40;;;17.00;92.60;;;;;;5031151;28;20457;-58
2023/10/21 12:49:25;;;;;;;0.50;0.50;;;16.70;93.10;;;;;;5031436;28;20525;-58
2023/10/21 12:51:53;;;;;;;2.00;1.00;;;16.60;92.80;;;;;;5031514;28;20408;-58
2023/10/21 12:54:19;;;;;;;0.80;0.60;;;16.50;92.90;;;;;;5031346;28;20429;-58
2023/10/21 12:56:45;;;;;;;1.13;0.57;;;16.50;93.40;;;;;;5031194;28;20420;-58
2023/10/21 12:59:10;;;;;;;0.40;0.40;;;16.50;92.00;;;;;;5032490;28;20258;-58
2023/10/21 13:01:38;;;;;;;0.40;0.40;;;16.60;92.60;;;;;;5031503;28;20221;-58
2023/10/21 13:04:04;;;;;;;0.50;0.50;;;16.60;92.60;;;;;;5031158;28;20191;-58
2023/10/21 13:06:30;;;;;;;1.13;0.90;;;16.60;92.50;;;;;;5030943;28;20441;-58
2023/10/21 13:08:56;;;;;;;1.57;1.00;;;16.60;91.90;;;;;;5031156;28;20409;-58
2023/10/21 13:11:22;;;;;;;0.60;0.60;;;16.50;92.20;;;;;;5031442;28;20408;-60
2023/10/21 13:13:52;;;;;;;0.30;0.30;;;16.60;92.40;;;;;;5034493;28;20226;-57
2023/10/21 13:16:18;;;;;;;0.40;0.40;;;16.60;94.20;;;;;;5014161;28;20453;-52
2023/10/21 13:18:51;;;;;;;0.63;0.50;;;16.40;93.40;;;;;;5030702;28;20472;-58
2023/10/21 13:21:18;;;;;;;0.57;0.40;;;16.40;92.90;;;;;;5031206;28;20428;-57
2023/10/21 13:23:44;;;;;;;0.50;0.50;;;16.40;92.80;;;;;;5030951;28;20943;-59
2023/10/21 13:26:11;;;;;;;5.40;0.70;;;16.30;93.50;;;;;;5031240;28;20471;-59